createdAt,value
2019-03-06T00:01:17.778Z,8.14
2019-03-06T00:07:23.993Z,8.23
2019-03-06T00:13:30.275Z,8.29
2019-03-06T00:19:36.134Z,8.35
2019-03-06T00:25:42.037Z,8.38
2019-03-06T00:31:48.064Z,8.38
2019-03-06T00:37:53.811Z,8.38
2019-03-06T00:43:59.610Z,8.43
2019-03-06T00:50:05.930Z,8.52
2019-03-06T00:56:12.068Z,8.56
2019-03-06T01:02:18.160Z,8.54
2019-03-06T01:08:24.198Z,8.50
2019-03-06T01:14:29.960Z,8.52
2019-03-06T01:20:35.806Z,8.54
2019-03-06T01:26:42.272Z,8.51
2019-03-06T01:32:50.529Z,8.45
2019-03-06T01:39:21.268Z,8.35
2019-03-06T01:45:27.212Z,8.32
2019-03-06T01:51:33.183Z,8.31
2019-03-06T01:57:39.307Z,8.35
2019-03-06T02:03:45.159Z,8.36
2019-03-06T02:09:50.875Z,8.35
2019-03-06T02:15:56.718Z,8.35
2019-03-06T02:22:02.458Z,8.37
2019-03-06T02:28:08.978Z,8.38
2019-03-06T02:34:14.728Z,8.44
2019-03-06T02:40:20.413Z,8.42
2019-03-06T02:46:26.221Z,8.43
2019-03-06T02:52:32.170Z,8.45
2019-03-06T02:59:01.356Z,8.43
2019-03-06T03:05:17.910Z,8.44
2019-03-06T03:11:23.908Z,8.45
2019-03-06T03:17:29.717Z,8.44
2019-03-06T03:23:35.549Z,8.46
2019-03-06T03:29:41.392Z,8.48
2019-03-06T03:35:47.160Z,8.45
2019-03-06T03:41:52.979Z,8.49
2019-03-06T03:47:58.760Z,8.51
2019-03-06T03:54:04.704Z,8.59
2019-03-06T04:00:13.227Z,8.61
2019-03-06T04:06:18.965Z,8.66
2019-03-06T04:12:24.651Z,8.70
2019-03-06T04:18:30.403Z,8.71
2019-03-06T04:24:36.423Z,8.75
2019-03-06T04:30:42.136Z,8.78
2019-03-06T04:36:48.196Z,8.83
2019-03-06T04:42:54.184Z,8.89
2019-03-06T04:48:59.873Z,8.92
2019-03-06T04:55:06.433Z,8.83
2019-03-06T05:01:12.335Z,8.74
2019-03-06T05:07:18.141Z,8.73
2019-03-06T05:13:25.371Z,8.76
2019-03-06T05:19:31.532Z,8.79
2019-03-06T05:25:37.492Z,8.75
2019-03-06T05:32:38.718Z,8.79
2019-03-06T05:39:02.270Z,8.78
2019-03-06T05:45:08.551Z,8.78
2019-03-06T05:51:14.387Z,8.76
2019-03-06T05:57:20.120Z,8.70
2019-03-06T06:03:25.970Z,8.71
2019-03-06T06:09:31.787Z,8.74
2019-03-06T06:15:37.967Z,8.81
2019-03-06T06:21:52.823Z,8.83
2019-03-06T06:27:58.923Z,8.85
2019-03-06T06:34:04.793Z,9.20
2019-03-06T06:40:10.926Z,9.26
2019-03-06T06:46:16.650Z,9.36
2019-03-06T06:53:27.550Z,9.31
2019-03-06T07:00:29.858Z,9.25
2019-03-06T07:06:57.795Z,9.23
2019-03-06T07:13:16.179Z,9.28
2019-03-06T07:19:39.998Z,9.30
2019-03-06T07:26:13.863Z,9.29
2019-03-06T07:32:35.423Z,9.34
2019-03-06T07:38:41.629Z,9.39
2019-03-06T07:46:06.940Z,9.48
2019-03-06T07:52:24.697Z,9.57
2019-03-06T07:58:54.306Z,9.68
2019-03-06T08:05:00.351Z,9.80
2019-03-06T08:11:09.934Z,9.95
2019-03-06T08:17:34.511Z,10.10
2019-03-06T08:23:59.956Z,10.26
2019-03-06T08:30:09.448Z,10.40
2019-03-06T08:36:15.170Z,10.62
2019-03-06T08:42:20.995Z,10.84
2019-03-06T08:48:40.302Z,11.00
2019-03-06T08:54:52.035Z,11.09
2019-03-06T09:01:24.891Z,11.23
2019-03-06T09:07:59.012Z,11.46
2019-03-06T09:14:36.101Z,11.67
2019-03-06T09:20:50.591Z,11.82
2019-03-06T09:27:30.713Z,11.85
2019-03-06T09:34:01.736Z,11.90
2019-03-06T09:40:33.926Z,12.03
2019-03-06T09:47:04.300Z,12.16
2019-03-06T09:53:41.334Z,12.24
2019-03-06T10:00:11.867Z,12.38
2019-03-06T10:06:27.833Z,12.64
2019-03-06T10:13:10.910Z,12.90
2019-03-06T10:19:43.037Z,13.05
2019-03-06T10:25:49.174Z,13.14
2019-03-06T10:31:54.869Z,13.25
2019-03-06T10:38:00.972Z,13.38
2019-03-06T10:44:29.562Z,13.48
2019-03-06T10:50:33.603Z,13.60
2019-03-06T10:56:39.616Z,13.73
2019-03-06T11:02:45.525Z,13.88
2019-03-06T11:08:51.440Z,14.08
2019-03-06T11:14:57.613Z,14.30
2019-03-06T11:21:03.655Z,14.42
2019-03-06T11:27:09.854Z,14.57
2019-03-06T11:33:16.396Z,14.64
2019-03-06T11:39:23.882Z,14.70
2019-03-06T11:45:29.970Z,14.80
2019-03-06T11:51:36.179Z,14.98
2019-03-06T11:57:42.656Z,15.04
2019-03-06T12:03:49.362Z,15.17
2019-03-06T12:09:55.051Z,15.26
2019-03-06T12:16:00.827Z,15.25
2019-03-06T12:22:06.927Z,15.21
2019-03-06T12:28:14.805Z,15.34
2019-03-06T12:34:20.692Z,15.43
2019-03-06T12:40:26.845Z,15.49
2019-03-06T12:46:33.556Z,15.32
2019-03-06T12:52:39.338Z,15.23
2019-03-06T12:58:45.174Z,15.12
2019-03-06T13:04:50.988Z,15.01
2019-03-06T13:10:58.506Z,14.92
2019-03-06T13:17:04.262Z,14.86
2019-03-06T13:23:10.070Z,14.89
2019-03-06T13:29:15.820Z,14.99
2019-03-06T13:35:21.948Z,15.13
2019-03-06T13:41:27.749Z,15.13
2019-03-06T13:47:33.539Z,15.05
2019-03-06T13:53:39.408Z,15.06
2019-03-06T13:59:45.475Z,14.94
2019-03-06T14:05:51.220Z,14.92
2019-03-06T14:11:57.076Z,14.91
2019-03-06T14:18:02.952Z,14.84
2019-03-06T14:24:08.832Z,14.66
2019-03-06T14:30:15.903Z,14.58
2019-03-06T14:36:22.434Z,14.39
2019-03-06T14:42:28.401Z,14.14
2019-03-06T14:48:34.389Z,13.90
2019-03-06T14:54:40.283Z,13.67
2019-03-06T15:00:46.654Z,13.51
2019-03-06T15:06:52.354Z,13.63
2019-03-06T15:12:58.214Z,13.67
2019-03-06T15:19:05.649Z,13.61
2019-03-06T15:25:15.602Z,13.45
2019-03-06T15:31:21.553Z,13.45
2019-03-06T15:37:28.562Z,13.47
2019-03-06T15:43:34.997Z,13.31
2019-03-06T15:49:40.733Z,13.34
2019-03-06T15:55:46.772Z,13.32
2019-03-06T16:01:53.111Z,13.26
2019-03-06T16:07:59.584Z,13.27
2019-03-06T16:14:05.988Z,13.25
2019-03-06T16:20:17.344Z,13.23
2019-03-06T16:26:23.732Z,13.17
2019-03-06T16:32:29.926Z,13.10
2019-03-06T16:38:35.716Z,13.04
2019-03-06T16:44:42.196Z,12.94
2019-03-06T16:50:47.966Z,12.95
2019-03-06T16:56:54.082Z,12.91
2019-03-06T17:03:00.798Z,12.86
2019-03-06T17:09:25.978Z,12.90
2019-03-06T17:15:32.757Z,12.91
2019-03-06T17:21:38.979Z,12.94
2019-03-06T17:27:44.848Z,12.98
2019-03-06T17:33:50.729Z,12.95
2019-03-06T17:39:56.690Z,12.91
2019-03-06T17:46:02.916Z,12.88
2019-03-06T17:52:08.926Z,12.87
2019-03-06T17:58:14.787Z,12.80
2019-03-06T18:04:22.121Z,12.72
2019-03-06T18:10:29.931Z,12.69
2019-03-06T18:16:37.212Z,12.67
2019-03-06T18:22:43.720Z,12.65
2019-03-06T18:28:49.656Z,12.67
2019-03-06T18:34:55.869Z,12.64
2019-03-06T18:41:01.782Z,12.61
2019-03-06T18:47:07.525Z,12.58
2019-03-06T18:53:13.329Z,12.52
2019-03-06T18:59:19.425Z,12.49
2019-03-06T19:05:44.169Z,12.51
2019-03-06T19:11:50.534Z,12.51
2019-03-06T19:17:56.424Z,12.54
2019-03-06T19:24:02.291Z,12.55
2019-03-06T19:30:29.853Z,12.57
2019-03-06T19:36:35.622Z,12.60
2019-03-06T19:42:41.862Z,12.67
2019-03-06T19:48:47.649Z,12.62
2019-03-06T19:54:53.541Z,12.66
2019-03-06T20:00:59.464Z,12.67
2019-03-06T20:07:06.074Z,12.68
2019-03-06T20:13:12.008Z,12.65
2019-03-06T20:19:20.621Z,12.68
2019-03-06T20:25:27.110Z,12.68
2019-03-06T20:31:33.198Z,12.61
2019-03-06T20:37:39.326Z,12.54
2019-03-06T20:43:45.277Z,12.51
2019-03-06T20:49:51.406Z,12.48
2019-03-06T20:55:57.396Z,12.46
2019-03-06T21:02:03.425Z,12.38
2019-03-06T21:08:09.214Z,12.36
2019-03-06T21:14:15.338Z,12.30
2019-03-06T21:20:21.127Z,12.27
2019-03-06T21:26:26.858Z,12.23
2019-03-06T21:32:32.817Z,12.21
2019-03-06T21:38:38.658Z,12.16
2019-03-06T21:44:44.766Z,12.16
2019-03-06T21:50:50.649Z,12.11
2019-03-06T21:56:56.913Z,12.09
2019-03-06T22:03:02.718Z,12.11
2019-03-06T22:09:14.711Z,12.13
2019-03-06T22:15:20.786Z,12.11
2019-03-06T22:21:26.611Z,12.06
2019-03-06T22:27:32.427Z,11.99
2019-03-06T22:33:38.630Z,11.97
2019-03-06T22:39:44.781Z,11.96
2019-03-06T22:45:50.603Z,11.96
2019-03-06T22:51:56.778Z,11.90
2019-03-06T22:58:03.171Z,11.93
2019-03-06T23:04:09.404Z,11.87
2019-03-06T23:10:15.345Z,11.77
2019-03-06T23:16:21.276Z,11.75
2019-03-06T23:22:27.188Z,11.70
2019-03-06T23:28:33.098Z,11.70
2019-03-06T23:34:39.077Z,11.69
2019-03-06T23:40:44.911Z,11.72
2019-03-06T23:46:50.674Z,11.77
2019-03-06T23:53:01.018Z,11.78
2019-03-06T23:59:07.053Z,11.78
